SHL weather

Shillong Airport
Shillong, Meghalaya, India

Public forecast

Using degrees Celsius for public forecast. Weather courtesy of forecast.io.

Closest aviation weather report (METAR) to Shillong Airport

Closest report is Lokpriya Gopinath Bordoloi International Airport, 32.2 nm (59.6 km) NW. Retrieved 2020/06/02 13:30 UTC (38 minutes ago):

VEGT 021330Z 24003KT 4000 BR SCT018 FEW025CB BKN100 31/27 Q1003 NOSIG

Closest aviation forecast (TAF) to Shillong Airport

Forecast is more than 12 hours old.

Closest forecast is Lokpriya Gopinath Bordoloi International Airport, 32.2 nm (59.6 km) NW. Retrieved 2016/03/24 00:45 UTC (4 years ago):

TAF VEGT 242300Z 2500/2606 00000KT 2000 BR FEW020 BECMG 2503/2506 05008KT 4000 HZ BECMG 2506/2509 5000 HZ BECMG 2512/2514 00000KT 4000 HZ FEW020 SCT100 BECMG 2515/2518 2500 HZ BECMG 2603/2606 05008KT 4000 HZ FEW020=